createdAt,value
2022-09-26T00:01:36.632Z,71.21
2022-09-26T00:04:09.397Z,71.20
2022-09-26T00:06:36.830Z,71.18
2022-09-26T00:09:04.552Z,71.23
2022-09-26T00:11:33.813Z,71.23
2022-09-26T00:14:07.145Z,71.27
2022-09-26T00:16:35.461Z,71.40
2022-09-26T00:19:03.537Z,71.52
2022-09-26T00:21:32.048Z,71.66
2022-09-26T00:24:01.530Z,71.73
2022-09-26T00:26:31.951Z,71.73
2022-09-26T00:29:06.961Z,71.76
2022-09-26T00:31:39.556Z,71.78
2022-09-26T00:34:07.676Z,71.85
2022-09-26T00:36:38.331Z,71.96
2022-09-26T00:39:10.629Z,72.00
2022-09-26T00:41:38.802Z,72.13
2022-09-26T00:44:52.870Z,72.11
2022-09-26T00:47:41.328Z,72.35
2022-09-26T00:50:22.754Z,72.25
2022-09-26T00:53:10.215Z,72.21
2022-09-26T00:55:42.916Z,72.22
2022-09-26T00:58:22.606Z,72.05
2022-09-26T01:00:50.909Z,71.83
2022-09-26T01:03:20.421Z,71.58
2022-09-26T01:05:48.867Z,71.24
2022-09-26T01:08:21.338Z,71.17
2022-09-26T01:10:49.945Z,71.01
2022-09-26T01:13:17.542Z,70.90
2022-09-26T01:15:45.283Z,70.84
2022-09-26T01:18:13.158Z,70.84
2022-09-26T01:21:13.237Z,70.84
2022-09-26T01:23:52.190Z,70.95
2022-09-26T01:26:49.123Z,70.95
2022-09-26T01:29:55.540Z,70.99
2022-09-26T01:32:49.718Z,71.04
2022-09-26T01:35:25.523Z,71.05
2022-09-26T01:38:17.909Z,71.04
2022-09-26T01:41:09.280Z,71.08
2022-09-26T01:43:41.935Z,71.19
2022-09-26T01:46:27.244Z,71.20
2022-09-26T01:49:20.453Z,71.28
2022-09-26T01:52:18.130Z,71.37
2022-09-26T01:55:26.476Z,71.40
2022-09-26T01:58:33.693Z,71.47
2022-09-26T02:01:15.043Z,71.56
2022-09-26T02:03:56.288Z,71.76
2022-09-26T02:06:56.534Z,71.96
2022-09-26T02:09:47.494Z,72.09
2022-09-26T02:12:24.445Z,72.10
2022-09-26T02:14:59.564Z,72.26
2022-09-26T02:17:42.571Z,72.25
2022-09-26T02:20:35.791Z,72.17
2022-09-26T02:23:11.620Z,72.18
2022-09-26T02:25:44.198Z,72.25
2022-09-26T02:28:13.720Z,72.14
2022-09-26T02:30:44.874Z,71.97
2022-09-26T02:33:14.734Z,71.94
2022-09-26T02:35:55.869Z,71.86
2022-09-26T02:38:30.597Z,71.84
2022-09-26T02:41:43.297Z,71.82
2022-09-26T02:44:37.255Z,71.97
2022-09-26T02:47:32.926Z,72.05
2022-09-26T02:50:54.328Z,72.16
2022-09-26T02:53:42.493Z,72.19
2022-09-26T02:56:32.165Z,72.32
2022-09-26T02:59:05.263Z,72.38
2022-09-26T03:01:41.678Z,72.43
2022-09-26T03:04:18.047Z,72.53
2022-09-26T03:06:51.198Z,72.56
2022-09-26T03:09:21.049Z,72.65
2022-09-26T03:11:50.497Z,72.68
2022-09-26T03:14:20.575Z,72.68
2022-09-26T03:16:50.005Z,72.79
2022-09-26T03:19:39.883Z,72.85
2022-09-26T03:22:09.102Z,72.86
2022-09-26T03:24:37.257Z,73.00
2022-09-26T03:27:05.925Z,72.98
2022-09-26T03:29:35.497Z,72.94
2022-09-26T03:32:04.164Z,73.14
2022-09-26T03:34:32.549Z,72.95
2022-09-26T03:36:59.978Z,72.89
2022-09-26T03:39:27.568Z,72.67
2022-09-26T03:41:59.729Z,72.51
2022-09-26T03:44:29.774Z,72.35
2022-09-26T03:47:12.886Z,71.97
2022-09-26T03:49:42.051Z,71.80
2022-09-26T03:52:11.890Z,71.68
2022-09-26T03:54:40.242Z,71.66
2022-09-26T03:57:09.977Z,71.67
2022-09-26T03:59:39.558Z,71.66
2022-09-26T04:02:08.228Z,71.65
2022-09-26T04:04:36.250Z,71.65
2022-09-26T04:07:04.219Z,71.66
2022-09-26T04:09:31.904Z,71.71
2022-09-26T04:12:00.917Z,71.74
2022-09-26T04:14:28.791Z,71.78
2022-09-26T04:16:58.221Z,71.86
2022-09-26T04:19:31.215Z,71.87
2022-09-26T04:21:59.126Z,71.90
2022-09-26T04:24:27.519Z,71.93
2022-09-26T04:26:54.954Z,72.03
2022-09-26T04:29:22.761Z,72.14
2022-09-26T04:31:55.222Z,72.31
2022-09-26T04:34:27.262Z,72.39
2022-09-26T04:36:54.507Z,72.47
2022-09-26T04:39:22.613Z,72.56
2022-09-26T04:41:50.957Z,72.63
2022-09-26T04:44:18.633Z,72.64
2022-09-26T04:46:47.516Z,72.63
2022-09-26T04:49:15.313Z,72.48
2022-09-26T04:51:43.716Z,72.41
2022-09-26T04:54:11.391Z,72.26
2022-09-26T04:56:40.720Z,72.18
2022-09-26T04:59:08.579Z,71.92
2022-09-26T05:01:50.184Z,71.87
2022-09-26T05:04:22.851Z,71.73
2022-09-26T05:06:49.605Z,71.69
2022-09-26T05:09:20.187Z,71.70
2022-09-26T05:11:55.508Z,71.73
2022-09-26T05:14:23.309Z,71.72
2022-09-26T05:16:51.055Z,71.72
2022-09-26T05:19:20.661Z,71.83
2022-09-26T05:21:58.904Z,71.84
2022-09-26T05:24:45.503Z,71.86
2022-09-26T05:27:13.705Z,71.92
2022-09-26T05:29:41.331Z,71.96
2022-09-26T05:32:10.619Z,71.83
2022-09-26T05:34:38.285Z,71.95
2022-09-26T05:37:06.253Z,71.98
2022-09-26T05:39:52.613Z,72.11
2022-09-26T05:42:20.615Z,72.20
2022-09-26T05:44:48.566Z,72.45
2022-09-26T05:47:17.292Z,72.45
2022-09-26T05:49:45.180Z,72.61
2022-09-26T05:52:14.317Z,72.69
2022-09-26T05:54:42.039Z,72.80
2022-09-26T05:57:12.497Z,72.75
2022-09-26T05:59:53.902Z,72.81
2022-09-26T06:02:27.217Z,72.58
2022-09-26T06:05:06.684Z,72.49
2022-09-26T06:07:40.133Z,72.24
2022-09-26T06:10:09.505Z,71.93
2022-09-26T06:12:53.773Z,71.63
2022-09-26T06:15:22.649Z,71.70
2022-09-26T06:18:05.979Z,71.54
2022-09-26T06:20:34.198Z,71.48
2022-09-26T06:23:02.280Z,71.47
2022-09-26T06:25:29.815Z,71.51
2022-09-26T06:28:00.409Z,71.47
2022-09-26T06:30:29.889Z,71.57
2022-09-26T06:33:14.341Z,71.47
2022-09-26T06:36:04.998Z,71.43
2022-09-26T06:38:35.145Z,71.38
2022-09-26T06:41:04.574Z,71.32
2022-09-26T06:43:32.501Z,71.27
2022-09-26T06:46:18.360Z,71.20
2022-09-26T06:48:48.082Z,71.17
2022-09-26T06:51:17.344Z,71.33
2022-09-26T06:53:45.330Z,71.43
2022-09-26T06:56:14.947Z,71.55
2022-09-26T06:58:42.638Z,71.67
2022-09-26T07:01:11.525Z,71.79
2022-09-26T07:03:45.727Z,71.92
2022-09-26T07:06:31.162Z,72.02
2022-09-26T07:09:04.828Z,72.14
2022-09-26T07:11:45.958Z,72.31
2022-09-26T07:14:01.684Z,72.48
2022-09-26T07:16:30.452Z,72.44
2022-09-26T07:18:59.764Z,72.35
2022-09-26T07:21:29.313Z,72.30
2022-09-26T07:24:08.114Z,72.23
2022-09-26T07:26:36.163Z,71.95
2022-09-26T07:29:04.194Z,71.76
2022-09-26T07:31:32.011Z,71.47
2022-09-26T07:34:04.703Z,71.28
2022-09-26T07:36:32.630Z,71.22
2022-09-26T07:39:00.842Z,70.84
2022-09-26T07:41:32.375Z,70.76
2022-09-26T07:46:49.354Z,70.31
2022-09-26T07:49:36.031Z,69.65
2022-09-26T07:52:08.178Z,69.20
2022-09-26T07:54:37.759Z,69.37
2022-09-26T07:57:25.535Z,69.14
2022-09-26T07:59:55.088Z,68.91
2022-09-26T08:02:44.554Z,68.96
2022-09-26T08:05:18.728Z,69.14
2022-09-26T08:07:48.917Z,68.96
2022-09-26T08:10:23.571Z,68.77
2022-09-26T08:13:09.464Z,68.85
2022-09-26T08:15:38.890Z,68.84
2022-09-26T08:18:08.664Z,68.94
2022-09-26T08:20:36.496Z,69.02
2022-09-26T08:23:03.864Z,69.01
2022-09-26T08:25:31.693Z,68.79
2022-09-26T08:28:01.442Z,68.69
2022-09-26T08:30:30.807Z,68.64
2022-09-26T08:33:01.607Z,68.20
2022-09-26T08:35:35.151Z,68.12
2022-09-26T08:38:14.657Z,67.83
2022-09-26T08:41:05.802Z,67.86
2022-09-26T08:44:34.812Z,67.70
2022-09-26T08:47:49.345Z,67.50
2022-09-26T08:50:52.155Z,67.36
2022-09-26T08:53:25.041Z,67.28
2022-09-26T08:55:56.970Z,67.49
2022-09-26T08:58:33.593Z,67.70
2022-09-26T09:01:04.607Z,67.68
2022-09-26T09:03:39.539Z,67.59
2022-09-26T09:06:11.897Z,67.30
2022-09-26T09:08:46.247Z,67.34
2022-09-26T09:11:55.588Z,67.39
2022-09-26T09:15:23.466Z,67.33
2022-09-26T09:17:53.536Z,67.38
2022-09-26T09:20:52.891Z,67.30
2022-09-26T09:23:54.642Z,67.42
2022-09-26T09:30:19.285Z,66.72
2022-09-26T09:33:12.941Z,66.60
2022-09-26T09:35:52.546Z,66.82
2022-09-26T09:38:38.324Z,66.93
2022-09-26T09:41:28.002Z,66.99
2022-09-26T09:44:05.845Z,67.27
2022-09-26T09:46:40.641Z,66.96
2022-09-26T09:49:16.472Z,66.79
2022-09-26T09:52:15.522Z,66.79
2022-09-26T09:55:32.605Z,66.48
2022-09-26T09:58:08.551Z,65.80
2022-09-26T10:00:50.472Z,65.60
2022-09-26T10:03:35.792Z,65.62
2022-09-26T10:06:09.424Z,65.48
2022-09-26T10:08:40.894Z,64.64
2022-09-26T10:11:30.381Z,64.23
2022-09-26T10:14:02.829Z,64.30
2022-09-26T10:16:34.734Z,64.43
2022-09-26T10:19:08.937Z,64.23
2022-09-26T10:21:40.254Z,64.34
2022-09-26T10:24:24.505Z,64.04
2022-09-26T10:26:54.247Z,64.17
2022-09-26T10:29:31.999Z,64.31
2022-09-26T10:32:00.513Z,64.28
2022-09-26T10:34:33.757Z,64.43
2022-09-26T10:37:25.298Z,64.36
2022-09-26T10:40:17.305Z,64.53
2022-09-26T10:42:46.847Z,64.60
2022-09-26T10:45:19.840Z,64.26
2022-09-26T10:47:59.461Z,63.64
2022-09-26T10:50:52.020Z,63.03
2022-09-26T10:53:38.154Z,59.05
2022-09-26T10:56:13.222Z,59.55
2022-09-26T10:58:45.197Z,58.11
2022-09-26T11:01:25.750Z,57.46
2022-09-26T11:03:56.421Z,57.38
2022-09-26T11:06:35.950Z,57.43
2022-09-26T11:09:20.890Z,57.05
2022-09-26T11:12:30.678Z,57.66
2022-09-26T11:15:09.848Z,58.07
2022-09-26T11:17:50.757Z,58.43
2022-09-26T11:20:53.024Z,58.76
2022-09-26T11:23:49.655Z,58.34
2022-09-26T11:26:38.820Z,58.45
2022-09-26T11:29:24.564Z,57.85
2022-09-26T11:31:58.225Z,58.28
2022-09-26T11:34:33.751Z,58.53
2022-09-26T11:37:59.903Z,58.67
2022-09-26T11:40:56.499Z,57.93
2022-09-26T11:43:58.851Z,58.34
2022-09-26T11:46:48.209Z,58.20
2022-09-26T11:49:59.218Z,58.56
2022-09-26T11:52:48.362Z,58.54
2022-09-26T11:55:38.130Z,55.98
2022-09-26T11:58:43.029Z,56.87
2022-09-26T12:01:19.373Z,57.04
2022-09-26T12:04:01.648Z,56.79
2022-09-26T12:06:38.131Z,56.80
2022-09-26T12:09:27.055Z,57.10
2022-09-26T12:12:06.395Z,58.31
2022-09-26T12:14:56.447Z,58.79
2022-09-26T12:17:49.142Z,59.15
2022-09-26T12:20:27.552Z,60.01
2022-09-26T12:23:18.527Z,60.54
2022-09-26T12:26:08.351Z,60.66
2022-09-26T12:28:56.885Z,60.89
2022-09-26T12:32:03.494Z,61.08
2022-09-26T12:35:04.422Z,61.21
2022-09-26T12:37:52.719Z,61.68
2022-09-26T12:40:28.842Z,61.93
2022-09-26T12:43:44.285Z,61.96
2022-09-26T12:46:44.653Z,62.24
2022-09-26T12:49:32.158Z,62.38
2022-09-26T12:52:14.135Z,62.37
2022-09-26T12:55:14.545Z,62.34
2022-09-26T12:58:05.522Z,62.50
2022-09-26T13:00:39.290Z,62.73
2022-09-26T13:03:24.716Z,62.95
2022-09-26T13:06:09.977Z,63.31
2022-09-26T13:09:35.438Z,63.74
2022-09-26T13:12:30.924Z,63.96
2022-09-26T13:15:25.991Z,64.41
2022-09-26T13:18:14.620Z,64.84
2022-09-26T13:20:45.683Z,65.16
2022-09-26T13:23:33.302Z,65.53
2022-09-26T13:26:18.636Z,65.60
2022-09-26T13:29:16.305Z,65.88
2022-09-26T13:31:43.216Z,65.71
2022-09-26T13:34:25.783Z,65.75
2022-09-26T13:36:55.044Z,65.58
2022-09-26T13:39:37.938Z,65.66
2022-09-26T13:42:17.455Z,65.74
2022-09-26T13:44:53.755Z,65.85
2022-09-26T13:47:38.714Z,65.86
2022-09-26T13:50:22.524Z,65.88
2022-09-26T13:53:04.295Z,65.87
2022-09-26T13:55:33.134Z,66.11
2022-09-26T13:58:20.698Z,66.14
2022-09-26T14:00:50.459Z,66.32
2022-09-26T14:03:23.645Z,66.29
2022-09-26T14:05:54.081Z,66.40
2022-09-26T14:08:50.202Z,66.46
2022-09-26T14:11:29.966Z,66.54
2022-09-26T14:14:21.061Z,66.57
2022-09-26T14:16:54.895Z,66.63
2022-09-26T14:19:46.160Z,66.83
2022-09-26T14:22:34.265Z,66.95
2022-09-26T14:25:02.148Z,67.14
2022-09-26T14:27:41.555Z,67.44
2022-09-26T14:30:30.110Z,67.80
2022-09-26T14:33:04.726Z,67.93
2022-09-26T14:35:37.681Z,68.09
2022-09-26T14:38:15.886Z,68.15
2022-09-26T14:40:56.340Z,67.94
2022-09-26T14:43:27.660Z,67.72
2022-09-26T14:46:04.688Z,67.68
2022-09-26T14:48:38.213Z,67.66
2022-09-26T14:51:18.888Z,67.67
2022-09-26T14:53:59.455Z,67.68
2022-09-26T14:56:40.165Z,67.67
2022-09-26T14:59:34.845Z,67.90
2022-09-26T15:02:26.325Z,67.99
2022-09-26T15:05:03.526Z,68.08
2022-09-26T15:07:50.806Z,68.17
2022-09-26T15:10:27.079Z,68.36
2022-09-26T15:13:08.813Z,68.50
2022-09-26T15:16:05.037Z,68.70
2022-09-26T15:18:40.956Z,68.86
2022-09-26T15:21:37.892Z,69.06
2022-09-26T15:24:33.328Z,69.29
2022-09-26T15:27:14.247Z,69.46
2022-09-26T15:29:50.884Z,69.68
2022-09-26T15:32:26.028Z,69.97
2022-09-26T15:34:55.457Z,70.18
2022-09-26T15:37:30.355Z,70.37
2022-09-26T15:40:21.252Z,70.45
2022-09-26T15:43:00.803Z,70.59
2022-09-26T15:45:49.974Z,70.61
2022-09-26T15:48:28.910Z,70.54
2022-09-26T15:51:01.940Z,70.43
2022-09-26T15:53:39.077Z,70.31
2022-09-26T15:56:20.966Z,70.21
2022-09-26T15:58:57.081Z,70.05
2022-09-26T16:01:29.598Z,69.97
2022-09-26T16:04:16.834Z,69.99
2022-09-26T16:06:58.726Z,70.00
2022-09-26T16:09:36.465Z,70.06
2022-09-26T16:12:22.063Z,70.17
2022-09-26T16:15:06.918Z,70.26
2022-09-26T16:17:39.727Z,70.37
2022-09-26T16:20:21.455Z,70.50
2022-09-26T16:22:58.078Z,70.60
2022-09-26T16:25:46.023Z,70.67
2022-09-26T16:28:20.348Z,70.82
2022-09-26T16:30:59.518Z,70.98
2022-09-26T16:33:31.166Z,71.21
2022-09-26T16:36:14.527Z,71.44
2022-09-26T16:38:42.660Z,71.72
2022-09-26T16:44:08.629Z,72.21
2022-09-26T16:46:39.000Z,72.44
2022-09-26T16:49:44.297Z,72.50
2022-09-26T16:52:33.402Z,72.56
2022-09-26T16:55:05.504Z,72.58
2022-09-26T16:57:39.446Z,72.53
2022-09-26T17:00:36.366Z,72.36
2022-09-26T17:03:24.835Z,72.23
2022-09-26T17:05:55.828Z,72.13
2022-09-26T17:08:27.900Z,72.06
2022-09-26T17:11:00.805Z,72.04
2022-09-26T17:13:32.532Z,72.07
2022-09-26T17:16:02.709Z,72.00
2022-09-26T17:18:32.576Z,72.04
2022-09-26T17:21:00.857Z,72.09
2022-09-26T17:23:45.825Z,72.14
2022-09-26T17:26:00.407Z,72.23
2022-09-26T17:28:33.520Z,72.26
2022-09-26T17:31:03.893Z,72.42
2022-09-26T17:33:32.315Z,72.54
2022-09-26T17:36:01.715Z,72.73
2022-09-26T17:38:29.707Z,72.97
2022-09-26T17:40:57.727Z,73.19
2022-09-26T17:43:25.423Z,73.42
2022-09-26T17:45:53.358Z,73.58
2022-09-26T17:48:32.611Z,73.75
2022-09-26T17:51:02.210Z,73.83
2022-09-26T17:53:37.316Z,73.95
2022-09-26T17:56:07.062Z,73.96
2022-09-26T17:58:37.957Z,73.89
2022-09-26T18:01:08.359Z,73.81
2022-09-26T18:03:39.245Z,73.67
2022-09-26T18:06:07.587Z,73.46
2022-09-26T18:08:38.258Z,73.35
2022-09-26T18:11:13.537Z,73.26
2022-09-26T18:13:49.740Z,73.25
2022-09-26T18:16:17.621Z,73.37
2022-09-26T18:18:45.325Z,73.43
2022-09-26T18:21:18.321Z,73.51
2022-09-26T18:23:58.696Z,73.52
2022-09-26T18:26:33.498Z,73.63
2022-09-26T18:29:07.025Z,73.68
2022-09-26T18:31:40.408Z,73.83
2022-09-26T18:34:16.735Z,73.87
2022-09-26T18:36:44.996Z,74.05
2022-09-26T18:39:12.837Z,74.20
2022-09-26T18:41:40.767Z,74.42
2022-09-26T18:44:16.316Z,74.59
2022-09-26T18:46:46.470Z,74.73
2022-09-26T18:49:14.855Z,74.92
2022-09-26T18:51:43.149Z,74.99
2022-09-26T18:54:14.240Z,75.00
2022-09-26T18:57:01.213Z,75.07
2022-09-26T18:59:32.265Z,75.03
2022-09-26T19:02:01.978Z,74.87
2022-09-26T19:04:30.319Z,74.80
2022-09-26T19:07:01.072Z,74.86
2022-09-26T19:09:35.227Z,74.79
2022-09-26T19:12:04.115Z,74.72
2022-09-26T19:14:32.046Z,74.76
2022-09-26T19:16:59.918Z,74.84
2022-09-26T19:19:31.956Z,74.95
2022-09-26T19:22:08.808Z,75.04
2022-09-26T19:24:52.634Z,75.18
2022-09-26T19:27:27.037Z,75.28
2022-09-26T19:30:06.045Z,75.43
2022-09-26T19:32:41.690Z,75.56
2022-09-26T19:35:32.557Z,75.73
2022-09-26T19:38:03.166Z,75.90
2022-09-26T19:40:31.142Z,76.12
2022-09-26T19:43:00.885Z,76.34
2022-09-26T19:45:32.290Z,76.59
2022-09-26T19:48:00.910Z,76.72
2022-09-26T19:50:32.694Z,76.72
2022-09-26T19:53:02.491Z,76.89
2022-09-26T19:55:31.892Z,76.94
2022-09-26T19:58:16.224Z,76.99
2022-09-26T20:00:44.564Z,77.03
2022-09-26T20:03:19.415Z,76.83
2022-09-26T20:05:51.951Z,76.59
2022-09-26T20:08:24.529Z,76.24
2022-09-26T20:10:54.349Z,76.22
2022-09-26T20:13:22.181Z,76.08
2022-09-26T20:15:50.299Z,76.24
2022-09-26T20:18:21.739Z,76.31
2022-09-26T20:20:55.726Z,76.43
2022-09-26T20:23:26.778Z,76.56
2022-09-26T20:25:55.454Z,76.71
2022-09-26T20:28:23.324Z,76.79
2022-09-26T20:30:50.947Z,76.86
2022-09-26T20:33:21.795Z,77.02
2022-09-26T20:35:53.380Z,77.07
2022-09-26T20:38:34.185Z,77.43
2022-09-26T20:41:35.731Z,77.76
2022-09-26T20:44:25.790Z,78.15
2022-09-26T20:46:59.556Z,78.54
2022-09-26T20:49:38.716Z,79.12
2022-09-26T20:52:08.299Z,79.49
2022-09-26T20:54:36.066Z,79.36
2022-09-26T20:57:03.892Z,79.55
2022-09-26T20:59:33.402Z,79.38
2022-09-26T21:02:06.238Z,79.28
2022-09-26T21:04:33.937Z,79.35
2022-09-26T21:07:01.406Z,79.52
2022-09-26T21:09:29.206Z,79.73
2022-09-26T21:11:56.986Z,79.89
2022-09-26T21:14:25.536Z,80.12
2022-09-26T21:16:54.220Z,80.33
2022-09-26T21:19:24.529Z,80.46
2022-09-26T21:21:55.919Z,80.57
2022-09-26T21:24:38.146Z,80.72
2022-09-26T21:27:11.665Z,80.82
2022-09-26T21:29:41.159Z,80.95
2022-09-26T21:32:13.492Z,80.96
2022-09-26T21:34:41.678Z,81.02
2022-09-26T21:37:10.610Z,81.12
2022-09-26T21:39:39.531Z,81.21
2022-09-26T21:42:07.410Z,81.25
2022-09-26T21:44:40.319Z,81.12
2022-09-26T21:47:08.273Z,81.21
2022-09-26T21:49:36.001Z,81.32
2022-09-26T21:52:17.321Z,81.35
2022-09-26T21:54:45.274Z,81.60
2022-09-26T21:57:23.582Z,81.64
2022-09-26T21:59:53.512Z,81.62
2022-09-26T22:02:21.198Z,81.51
2022-09-26T22:04:49.506Z,81.39
2022-09-26T22:07:17.325Z,81.24
2022-09-26T22:09:45.155Z,81.25
2022-09-26T22:12:12.930Z,81.11
2022-09-26T22:14:41.117Z,81.12
2022-09-26T22:17:09.168Z,81.05
2022-09-26T22:19:36.982Z,81.01
2022-09-26T22:22:05.247Z,81.00
2022-09-26T22:24:33.381Z,81.02
2022-09-26T22:27:01.641Z,81.09
2022-09-26T22:29:29.658Z,81.14
2022-09-26T22:31:57.518Z,81.26
2022-09-26T22:34:28.441Z,81.40
2022-09-26T22:36:56.255Z,81.47
2022-09-26T22:39:24.283Z,81.60
2022-09-26T22:41:52.298Z,81.70
2022-09-26T22:44:19.993Z,81.64
2022-09-26T22:46:47.754Z,81.64
2022-09-26T22:49:15.637Z,81.42
2022-09-26T22:51:43.543Z,81.11
2022-09-26T22:54:11.507Z,81.07
2022-09-26T22:56:39.199Z,81.27
2022-09-26T22:59:07.067Z,81.41
2022-09-26T23:01:34.854Z,81.56
2022-09-26T23:04:02.790Z,81.71
2022-09-26T23:06:31.870Z,81.79
2022-09-26T23:08:59.582Z,81.89
2022-09-26T23:11:27.848Z,81.97
2022-09-26T23:13:55.575Z,81.97
2022-09-26T23:16:26.912Z,82.00
2022-09-26T23:18:55.204Z,81.99
2022-09-26T23:21:26.443Z,82.01
2022-09-26T23:23:57.193Z,82.08
2022-09-26T23:26:30.768Z,82.24
2022-09-26T23:28:59.183Z,82.28
2022-09-26T23:31:28.489Z,82.26
2022-09-26T23:33:56.893Z,82.29
2022-09-26T23:36:25.081Z,82.24
2022-09-26T23:38:52.875Z,82.20
2022-09-26T23:41:20.604Z,82.19
2022-09-26T23:43:48.388Z,82.08
2022-09-26T23:46:16.773Z,81.78
2022-09-26T23:48:44.462Z,81.69
2022-09-26T23:51:12.168Z,81.72
2022-09-26T23:53:39.958Z,81.63
2022-09-26T23:56:10.989Z,81.57
2022-09-26T23:58:38.957Z,81.53
